createdAt,value
2023-04-29T00:01:00.676Z,21.40
2023-04-29T00:06:02.971Z,19.70
2023-04-29T00:11:05.429Z,22.10
2023-04-29T00:16:08.811Z,20.00
2023-04-29T00:21:11.516Z,22.70
2023-04-29T00:26:13.360Z,22.00
2023-04-29T00:31:17.528Z,22.00
2023-04-29T00:36:19.617Z,20.10
2023-04-29T00:41:22.228Z,19.90
2023-04-29T00:46:24.308Z,18.10
2023-04-29T00:51:27.212Z,18.30
2023-04-29T00:56:32.366Z,17.70
2023-04-29T01:01:35.957Z,15.20
2023-04-29T01:06:53.189Z,14.80
2023-04-29T01:12:08.510Z,16.10
2023-04-29T01:17:15.718Z,15.80
2023-04-29T01:22:18.950Z,14.80
2023-04-29T01:27:32.177Z,15.10
2023-04-29T01:33:01.508Z,15.00
2023-04-29T01:38:29.684Z,14.10
2023-04-29T01:43:34.541Z,13.60
2023-04-29T01:48:54.819Z,12.80
2023-04-29T01:53:57.427Z,13.60
2023-04-29T01:58:59.746Z,12.10
2023-04-29T02:04:20.673Z,13.20
2023-04-29T02:09:22.708Z,12.10
2023-04-29T02:14:29.298Z,9.60
2023-04-29T02:19:31.784Z,9.60
2023-04-29T02:24:34.385Z,8.50
2023-04-29T02:29:37.196Z,8.90
2023-04-29T02:34:40.083Z,8.60
2023-04-29T02:39:42.062Z,8.30
2023-04-29T02:44:44.570Z,8.10
2023-04-29T02:49:47.170Z,7.30
2023-04-29T02:54:49.463Z,8.00
2023-04-29T02:59:51.614Z,8.50
2023-04-29T03:04:53.947Z,8.20
2023-04-29T03:09:56.387Z,9.00
2023-04-29T03:14:58.832Z,8.40
2023-04-29T03:20:00.852Z,8.30
2023-04-29T03:25:02.921Z,8.40
2023-04-29T03:30:10.445Z,8.30
2023-04-29T03:35:18.063Z,7.90
2023-04-29T03:40:37.569Z,9.00
2023-04-29T03:45:39.817Z,8.30
2023-04-29T03:50:42.344Z,8.90
2023-04-29T03:55:44.970Z,9.30
2023-04-29T04:00:46.893Z,8.50
2023-04-29T04:05:52.721Z,10.00
2023-04-29T04:10:54.591Z,9.90
2023-04-29T04:16:06.558Z,9.70
2023-04-29T04:21:09.987Z,9.90
2023-04-29T04:26:13.128Z,9.70
2023-04-29T04:31:32.443Z,8.80
2023-04-29T04:36:34.676Z,9.10
2023-04-29T04:41:36.655Z,9.30
2023-04-29T04:46:39.209Z,7.90
2023-04-29T04:51:47.486Z,8.30
2023-04-29T04:56:52.302Z,8.40
2023-04-29T05:01:55.527Z,9.10
2023-04-29T05:06:58.714Z,8.70
2023-04-29T05:12:02.988Z,9.00
2023-04-29T05:17:10.411Z,9.30
2023-04-29T05:22:12.855Z,8.70
2023-04-29T05:27:16.609Z,8.90
2023-04-29T05:32:18.801Z,9.10
2023-04-29T05:37:21.005Z,9.20
2023-04-29T05:42:45.700Z,9.60
2023-04-29T05:47:48.497Z,8.70
2023-04-29T05:52:52.044Z,8.40
2023-04-29T05:57:54.754Z,8.80
2023-04-29T06:02:59.189Z,8.90
2023-04-29T06:08:03.997Z,9.90
2023-04-29T06:13:20.637Z,9.70
2023-04-29T06:18:24.365Z,10.00
2023-04-29T06:23:26.755Z,9.40
2023-04-29T06:28:30.133Z,8.90
2023-04-29T06:33:34.120Z,8.50
2023-04-29T06:38:36.644Z,9.00
2023-04-29T06:44:01.990Z,9.60
2023-04-29T06:49:30.349Z,9.90
2023-04-29T06:54:32.394Z,10.50
2023-04-29T06:59:34.867Z,10.30
2023-04-29T07:04:39.396Z,9.80
2023-04-29T07:09:41.681Z,10.50
2023-04-29T07:14:43.588Z,10.20
2023-04-29T07:19:47.369Z,8.00
2023-04-29T07:24:49.379Z,8.20
2023-04-29T07:29:51.692Z,8.60
2023-04-29T07:34:53.967Z,8.90
2023-04-29T07:39:56.555Z,10.90
2023-04-29T07:44:59.120Z,10.10
2023-04-29T07:50:01.660Z,9.70
2023-04-29T07:55:03.960Z,8.80
2023-04-29T08:00:07.672Z,9.40
2023-04-29T08:05:16.815Z,10.50
2023-04-29T08:10:22.889Z,10.20
2023-04-29T08:15:25.016Z,8.70
2023-04-29T08:20:29.077Z,9.00
2023-04-29T08:25:31.013Z,8.50
2023-04-29T08:30:33.676Z,8.30
2023-04-29T08:35:38.821Z,9.30
2023-04-29T08:40:43.780Z,8.40
2023-04-29T08:45:48.843Z,10.40
2023-04-29T08:50:50.957Z,8.50
2023-04-29T08:55:55.475Z,8.50
2023-04-29T09:00:57.644Z,8.60
2023-04-29T09:06:02.109Z,7.90
2023-04-29T09:11:05.496Z,7.70
2023-04-29T09:16:12.045Z,8.00
2023-04-29T09:21:21.141Z,7.70
2023-04-29T09:26:25.124Z,8.00
2023-04-29T09:31:28.208Z,7.20
2023-04-29T09:36:38.584Z,7.70
2023-04-29T09:41:43.696Z,7.30
2023-04-29T09:46:57.504Z,8.10
2023-04-29T09:52:05.249Z,7.70
2023-04-29T09:57:09.237Z,8.30
